sensor_id;sensor_type;location;lat;lon;timestamp;P1;durP1;ratioP1;P2;durP2;ratioP2
9178;SDS011;4624;48.126;11.546;2022-11-27T00:02:08;6.40;;;4.90;;
9178;SDS011;4624;48.126;11.546;2022-11-27T00:04:35;12.03;;;8.03;;
9178;SDS011;4624;48.126;11.546;2022-11-27T00:07:02;10.17;;;6.87;;
9178;SDS011;4624;48.126;11.546;2022-11-27T00:09:29;11.33;;;7.23;;
9178;SDS011;4624;48.126;11.546;2022-11-27T00:11:57;13.47;;;8.23;;
9178;SDS011;4624;48.126;11.546;2022-11-27T00:14:24;9.77;;;6.37;;
9178;SDS011;4624;48.126;11.546;2022-11-27T00:16:52;9.20;;;6.70;;
9178;SDS011;4624;48.126;11.546;2022-11-27T00:19:18;10.20;;;6.37;;
9178;SDS011;4624;48.126;11.546;2022-11-27T00:21:45;8.20;;;6.10;;
9178;SDS011;4624;48.126;11.546;2022-11-27T00:24:12;11.30;;;6.90;;
9178;SDS011;4624;48.126;11.546;2022-11-27T00:26:39;8.93;;;6.20;;
9178;SDS011;4624;48.126;11.546;2022-11-27T00:29:06;11.63;;;7.50;;
9178;SDS011;4624;48.126;11.546;2022-11-27T00:31:33;10.30;;;6.77;;
9178;SDS011;4624;48.126;11.546;2022-11-27T00:34:03;13.63;;;9.47;;
9178;SDS011;4624;48.126;11.546;2022-11-27T00:36:32;13.70;;;8.63;;
9178;SDS011;4624;48.126;11.546;2022-11-27T00:38:59;13.17;;;8.57;;
9178;SDS011;4624;48.126;11.546;2022-11-27T00:41:27;17.30;;;11.87;;
9178;SDS011;4624;48.126;11.546;2022-11-27T00:43:55;14.27;;;9.80;;
9178;SDS011;4624;48.126;11.546;2022-11-27T00:46:23;10.90;;;7.80;;
9178;SDS011;4624;48.126;11.546;2022-11-27T00:48:51;14.73;;;7.97;;
9178;SDS011;4624;48.126;11.546;2022-11-27T00:51:20;12.80;;;8.90;;
9178;SDS011;4624;48.126;11.546;2022-11-27T00:53:47;10.90;;;7.80;;
9178;SDS011;4624;48.126;11.546;2022-11-27T00:56:14;7.70;;;5.73;;
9178;SDS011;4624;48.126;11.546;2022-11-27T00:58:42;11.47;;;7.93;;
9178;SDS011;4624;48.126;11.546;2022-11-27T01:01:13;13.53;;;7.03;;
9178;SDS011;4624;48.126;11.546;2022-11-27T01:03:42;11.60;;;7.43;;
9178;SDS011;4624;48.126;11.546;2022-11-27T01:06:09;12.10;;;8.33;;
9178;SDS011;4624;48.126;11.546;2022-11-27T01:08:37;9.07;;;6.70;;
9178;SDS011;4624;48.126;11.546;2022-11-27T01:11:05;10.80;;;6.53;;
9178;SDS011;4624;48.126;11.546;2022-11-27T01:13:32;10.93;;;6.37;;
9178;SDS011;4624;48.126;11.546;2022-11-27T01:16:01;11.03;;;7.00;;
9178;SDS011;4624;48.126;11.546;2022-11-27T01:18:30;10.37;;;6.33;;
9178;SDS011;4624;48.126;11.546;2022-11-27T01:20:57;9.77;;;6.20;;
9178;SDS011;4624;48.126;11.546;2022-11-27T01:23:24;17.30;;;10.03;;
9178;SDS011;4624;48.126;11.546;2022-11-27T01:25:52;7.93;;;5.33;;
9178;SDS011;4624;48.126;11.546;2022-11-27T01:28:21;7.03;;;4.73;;
9178;SDS011;4624;48.126;11.546;2022-11-27T01:30:49;5.00;;;3.57;;
9178;SDS011;4624;48.126;11.546;2022-11-27T01:33:16;6.80;;;4.10;;
9178;SDS011;4624;48.126;11.546;2022-11-27T01:35:52;8.63;;;4.90;;
9178;SDS011;4624;48.126;11.546;2022-11-27T01:38:20;9.13;;;5.67;;
9178;SDS011;4624;48.126;11.546;2022-11-27T01:40:47;8.30;;;5.40;;
9178;SDS011;4624;48.126;11.546;2022-11-27T01:43:15;11.90;;;7.40;;
9178;SDS011;4624;48.126;11.546;2022-11-27T01:45:42;10.03;;;6.93;;
9178;SDS011;4624;48.126;11.546;2022-11-27T01:48:10;6.53;;;4.77;;
9178;SDS011;4624;48.126;11.546;2022-11-27T01:50:38;9.23;;;5.13;;
9178;SDS011;4624;48.126;11.546;2022-11-27T01:53:06;6.63;;;4.47;;
9178;SDS011;4624;48.126;11.546;2022-11-27T01:55:39;7.73;;;4.90;;
9178;SDS011;4624;48.126;11.546;2022-11-27T01:58:08;6.03;;;4.47;;
9178;SDS011;4624;48.126;11.546;2022-11-27T02:00:38;5.47;;;4.67;;
9178;SDS011;4624;48.126;11.546;2022-11-27T02:03:05;6.03;;;4.63;;
9178;SDS011;4624;48.126;11.546;2022-11-27T02:05:32;6.13;;;4.20;;
9178;SDS011;4624;48.126;11.546;2022-11-27T02:08:01;7.10;;;3.87;;
9178;SDS011;4624;48.126;11.546;2022-11-27T02:10:34;6.93;;;4.30;;
9178;SDS011;4624;48.126;11.546;2022-11-27T02:13:10;4.13;;;2.93;;
9178;SDS011;4624;48.126;11.546;2022-11-27T02:15:44;4.07;;;2.73;;
9178;SDS011;4624;48.126;11.546;2022-11-27T02:18:17;5.37;;;2.33;;
9178;SDS011;4624;48.126;11.546;2022-11-27T02:20:49;2.57;;;2.30;;
9178;SDS011;4624;48.126;11.546;2022-11-27T02:29:28;3.10;;;2.33;;
9178;SDS011;4624;48.126;11.546;2022-11-27T02:32:00;4.50;;;2.53;;
9178;SDS011;4624;48.126;11.546;2022-11-27T02:34:33;2.73;;;2.30;;
9178;SDS011;4624;48.126;11.546;2022-11-27T02:37:06;3.57;;;2.20;;
9178;SDS011;4624;48.126;11.546;2022-11-27T02:39:39;2.27;;;2.07;;
9178;SDS011;4624;48.126;11.546;2022-11-27T02:42:10;4.07;;;1.97;;
9178;SDS011;4624;48.126;11.546;2022-11-27T02:44:43;4.27;;;2.07;;
9178;SDS011;4624;48.126;11.546;2022-11-27T02:47:12;2.53;;;2.23;;
9178;SDS011;4624;48.126;11.546;2022-11-27T02:49:40;4.03;;;2.17;;
9178;SDS011;4624;48.126;11.546;2022-11-27T02:52:09;3.90;;;2.23;;
9178;SDS011;4624;48.126;11.546;2022-11-27T02:54:37;2.57;;;2.20;;
9178;SDS011;4624;48.126;11.546;2022-11-27T02:57:06;2.37;;;2.17;;
9178;SDS011;4624;48.126;11.546;2022-11-27T02:59:34;3.17;;;2.03;;
9178;SDS011;4624;48.126;11.546;2022-11-27T03:02:06;4.37;;;2.20;;
9178;SDS011;4624;48.126;11.546;2022-11-27T03:04:36;3.40;;;2.10;;
9178;SDS011;4624;48.126;11.546;2022-11-27T03:07:10;3.03;;;1.93;;
9178;SDS011;4624;48.126;11.546;2022-11-27T03:09:42;3.20;;;1.93;;
9178;SDS011;4624;48.126;11.546;2022-11-27T03:12:12;2.43;;;1.63;;
9178;SDS011;4624;48.126;11.546;2022-11-27T03:14:41;2.93;;;2.00;;
9178;SDS011;4624;48.126;11.546;2022-11-27T03:17:14;2.87;;;2.60;;
9178;SDS011;4624;48.126;11.546;2022-11-27T03:19:52;3.97;;;2.70;;
9178;SDS011;4624;48.126;11.546;2022-11-27T03:22:22;4.03;;;3.30;;
9178;SDS011;4624;48.126;11.546;2022-11-27T03:24:50;4.83;;;3.70;;
9178;SDS011;4624;48.126;11.546;2022-11-27T03:27:18;8.10;;;5.03;;
9178;SDS011;4624;48.126;11.546;2022-11-27T03:29:52;8.83;;;6.30;;
9178;SDS011;4624;48.126;11.546;2022-11-27T03:32:23;6.10;;;3.90;;
9178;SDS011;4624;48.126;11.546;2022-11-27T03:34:51;4.80;;;3.03;;
9178;SDS011;4624;48.126;11.546;2022-11-27T03:37:18;2.17;;;1.97;;
9178;SDS011;4624;48.126;11.546;2022-11-27T03:39:45;2.20;;;1.90;;
9178;SDS011;4624;48.126;11.546;2022-11-27T03:42:13;2.40;;;2.20;;
9178;SDS011;4624;48.126;11.546;2022-11-27T03:44:49;2.77;;;2.23;;
9178;SDS011;4624;48.126;11.546;2022-11-27T03:47:28;3.27;;;2.30;;
9178;SDS011;4624;48.126;11.546;2022-11-27T03:50:16;4.50;;;2.93;;
9178;SDS011;4624;48.126;11.546;2022-11-27T03:55:25;5.33;;;4.03;;
9178;SDS011;4624;48.126;11.546;2022-11-27T03:57:57;5.40;;;3.30;;
9178;SDS011;4624;48.126;11.546;2022-11-27T04:00:27;7.17;;;4.33;;
9178;SDS011;4624;48.126;11.546;2022-11-27T04:03:00;10.00;;;4.67;;
9178;SDS011;4624;48.126;11.546;2022-11-27T04:05:28;8.10;;;3.67;;
9178;SDS011;4624;48.126;11.546;2022-11-27T04:07:55;5.77;;;4.13;;
9178;SDS011;4624;48.126;11.546;2022-11-27T04:10:22;5.17;;;2.80;;
9178;SDS011;4624;48.126;11.546;2022-11-27T04:12:49;5.67;;;3.37;;
9178;SDS011;4624;48.126;11.546;2022-11-27T04:15:15;4.20;;;3.20;;
9178;SDS011;4624;48.126;11.546;2022-11-27T04:17:42;10.90;;;6.57;;
9178;SDS011;4624;48.126;11.546;2022-11-27T04:20:11;11.43;;;6.63;;
9178;SDS011;4624;48.126;11.546;2022-11-27T04:22:39;17.07;;;9.60;;
9178;SDS011;4624;48.126;11.546;2022-11-27T04:25:06;11.47;;;7.07;;
9178;SDS011;4624;48.126;11.546;2022-11-27T04:27:33;9.47;;;5.57;;
9178;SDS011;4624;48.126;11.546;2022-11-27T04:30:00;7.53;;;4.33;;
9178;SDS011;4624;48.126;11.546;2022-11-27T04:32:27;6.67;;;3.53;;
9178;SDS011;4624;48.126;11.546;2022-11-27T04:34:54;10.40;;;5.27;;
9178;SDS011;4624;48.126;11.546;2022-11-27T04:37:22;17.57;;;8.30;;
9178;SDS011;4624;48.126;11.546;2022-11-27T04:39:48;13.77;;;8.50;;
9178;SDS011;4624;48.126;11.546;2022-11-27T04:42:15;4.80;;;3.13;;
9178;SDS011;4624;48.126;11.546;2022-11-27T04:44:42;3.33;;;2.70;;
9178;SDS011;4624;48.126;11.546;2022-11-27T04:47:09;2.57;;;2.20;;
9178;SDS011;4624;48.126;11.546;2022-11-27T04:49:35;2.10;;;1.90;;
9178;SDS011;4624;48.126;11.546;2022-11-27T04:52:03;2.50;;;1.60;;
9178;SDS011;4624;48.126;11.546;2022-11-27T04:54:31;2.20;;;2.00;;
9178;SDS011;4624;48.126;11.546;2022-11-27T04:56:58;2.00;;;1.90;;
9178;SDS011;4624;48.126;11.546;2022-11-27T04:59:24;2.30;;;2.10;;
9178;SDS011;4624;48.126;11.546;2022-11-27T05:01:51;3.03;;;1.80;;
9178;SDS011;4624;48.126;11.546;2022-11-27T05:04:18;3.20;;;1.87;;
9178;SDS011;4624;48.126;11.546;2022-11-27T05:06:44;3.67;;;1.60;;
9178;SDS011;4624;48.126;11.546;2022-11-27T05:09:11;2.27;;;2.00;;
9178;SDS011;4624;48.126;11.546;2022-11-27T05:11:39;3.27;;;2.43;;
9178;SDS011;4624;48.126;11.546;2022-11-27T05:14:06;2.47;;;1.63;;
9178;SDS011;4624;48.126;11.546;2022-11-27T05:16:44;1.60;;;1.20;;
9178;SDS011;4624;48.126;11.546;2022-11-27T05:19:12;3.03;;;2.00;;
9178;SDS011;4624;48.126;11.546;2022-11-27T05:21:40;2.30;;;1.40;;
9178;SDS011;4624;48.126;11.546;2022-11-27T05:24:07;2.03;;;1.90;;
9178;SDS011;4624;48.126;11.546;2022-11-27T05:26:35;3.53;;;1.67;;
9178;SDS011;4624;48.126;11.546;2022-11-27T05:29:04;1.67;;;1.53;;
9178;SDS011;4624;48.126;11.546;2022-11-27T05:31:32;2.77;;;1.77;;
9178;SDS011;4624;48.126;11.546;2022-11-27T05:33:59;1.97;;;1.57;;
9178;SDS011;4624;48.126;11.546;2022-11-27T05:36:26;1.43;;;1.10;;
9178;SDS011;4624;48.126;11.546;2022-11-27T05:38:53;2.47;;;2.00;;
9178;SDS011;4624;48.126;11.546;2022-11-27T05:41:19;2.40;;;1.97;;
9178;SDS011;4624;48.126;11.546;2022-11-27T05:43:46;2.60;;;1.83;;
9178;SDS011;4624;48.126;11.546;2022-11-27T05:46:15;3.67;;;1.80;;
9178;SDS011;4624;48.126;11.546;2022-11-27T05:48:44;3.47;;;2.20;;
9178;SDS011;4624;48.126;11.546;2022-11-27T05:51:10;3.93;;;1.70;;
9178;SDS011;4624;48.126;11.546;2022-11-27T05:53:37;2.60;;;1.60;;
9178;SDS011;4624;48.126;11.546;2022-11-27T05:56:05;1.70;;;1.60;;
9178;SDS011;4624;48.126;11.546;2022-11-27T05:58:34;1.97;;;1.40;;
9178;SDS011;4624;48.126;11.546;2022-11-27T06:01:02;1.93;;;1.60;;
9178;SDS011;4624;48.126;11.546;2022-11-27T06:03:30;2.60;;;1.60;;
9178;SDS011;4624;48.126;11.546;2022-11-27T06:05:57;3.80;;;2.40;;
9178;SDS011;4624;48.126;11.546;2022-11-27T06:08:24;1.70;;;1.40;;
9178;SDS011;4624;48.126;11.546;2022-11-27T06:10:50;3.40;;;1.47;;
9178;SDS011;4624;48.126;11.546;2022-11-27T06:13:17;1.90;;;1.67;;
9178;SDS011;4624;48.126;11.546;2022-11-27T06:15:44;2.07;;;1.60;;
9178;SDS011;4624;48.126;11.546;2022-11-27T06:18:11;2.17;;;1.70;;
9178;SDS011;4624;48.126;11.546;2022-11-27T06:20:39;1.97;;;1.77;;
9178;SDS011;4624;48.126;11.546;2022-11-27T06:23:06;1.57;;;1.30;;
9178;SDS011;4624;48.126;11.546;2022-11-27T06:25:32;1.43;;;1.33;;
9178;SDS011;4624;48.126;11.546;2022-11-27T06:27:59;2.33;;;1.67;;
9178;SDS011;4624;48.126;11.546;2022-11-27T06:30:26;2.60;;;1.90;;
9178;SDS011;4624;48.126;11.546;2022-11-27T06:32:52;1.80;;;1.50;;
9178;SDS011;4624;48.126;11.546;2022-11-27T06:35:19;2.57;;;1.57;;
9178;SDS011;4624;48.126;11.546;2022-11-27T06:37:48;1.80;;;1.67;;
9178;SDS011;4624;48.126;11.546;2022-11-27T06:40:15;2.03;;;1.70;;
9178;SDS011;4624;48.126;11.546;2022-11-27T06:42:41;5.50;;;2.03;;
9178;SDS011;4624;48.126;11.546;2022-11-27T06:45:08;1.87;;;1.70;;
9178;SDS011;4624;48.126;11.546;2022-11-27T06:47:36;1.67;;;1.27;;
9178;SDS011;4624;48.126;11.546;2022-11-27T06:50:03;2.70;;;1.50;;
9178;SDS011;4624;48.126;11.546;2022-11-27T06:52:30;2.10;;;1.90;;
9178;SDS011;4624;48.126;11.546;2022-11-27T06:54:58;1.70;;;1.60;;
9178;SDS011;4624;48.126;11.546;2022-11-27T06:57:25;3.63;;;1.50;;
9178;SDS011;4624;48.126;11.546;2022-11-27T06:59:52;1.80;;;1.70;;
9178;SDS011;4624;48.126;11.546;2022-11-27T07:02:19;1.67;;;1.57;;
9178;SDS011;4624;48.126;11.546;2022-11-27T07:04:45;2.70;;;1.50;;
9178;SDS011;4624;48.126;11.546;2022-11-27T07:07:12;1.83;;;1.53;;
9178;SDS011;4624;48.126;11.546;2022-11-27T07:09:39;1.47;;;1.30;;
9178;SDS011;4624;48.126;11.546;2022-11-27T07:12:08;4.47;;;1.40;;
9178;SDS011;4624;48.126;11.546;2022-11-27T07:14:35;2.60;;;1.50;;
9178;SDS011;4624;48.126;11.546;2022-11-27T07:17:01;1.57;;;1.47;;
9178;SDS011;4624;48.126;11.546;2022-11-27T07:19:28;2.00;;;1.60;;
9178;SDS011;4624;48.126;11.546;2022-11-27T07:21:55;1.43;;;1.33;;
9178;SDS011;4624;48.126;11.546;2022-11-27T07:24:22;2.50;;;1.60;;
9178;SDS011;4624;48.126;11.546;2022-11-27T07:26:48;2.27;;;1.70;;
9178;SDS011;4624;48.126;11.546;2022-11-27T07:29:17;2.43;;;1.80;;
9178;SDS011;4624;48.126;11.546;2022-11-27T07:31:43;2.80;;;1.60;;
9178;SDS011;4624;48.126;11.546;2022-11-27T07:34:10;3.23;;;1.97;;
9178;SDS011;4624;48.126;11.546;2022-11-27T07:36:37;5.27;;;2.40;;
9178;SDS011;4624;48.126;11.546;2022-11-27T07:39:03;3.20;;;1.80;;
9178;SDS011;4624;48.126;11.546;2022-11-27T07:41:30;3.17;;;1.60;;
9178;SDS011;4624;48.126;11.546;2022-11-27T07:43:57;2.30;;;1.83;;
9178;SDS011;4624;48.126;11.546;2022-11-27T07:46:25;2.07;;;1.47;;
9178;SDS011;4624;48.126;11.546;2022-11-27T07:48:52;1.90;;;1.80;;
9178;SDS011;4624;48.126;11.546;2022-11-27T07:51:19;3.67;;;2.07;;
9178;SDS011;4624;48.126;11.546;2022-11-27T07:53:47;1.97;;;1.70;;
9178;SDS011;4624;48.126;11.546;2022-11-27T07:56:15;2.40;;;2.20;;
9178;SDS011;4624;48.126;11.546;2022-11-27T07:58:42;2.53;;;2.10;;
9178;SDS011;4624;48.126;11.546;2022-11-27T08:01:10;2.00;;;1.90;;
9178;SDS011;4624;48.126;11.546;2022-11-27T08:03:42;2.60;;;2.40;;
9178;SDS011;4624;48.126;11.546;2022-11-27T08:06:13;2.47;;;1.80;;
9178;SDS011;4624;48.126;11.546;2022-11-27T08:08:43;2.40;;;2.20;;
9178;SDS011;4624;48.126;11.546;2022-11-27T08:11:14;3.50;;;2.00;;
9178;SDS011;4624;48.126;11.546;2022-11-27T08:13:42;2.10;;;1.80;;
9178;SDS011;4624;48.126;11.546;2022-11-27T08:16:09;2.30;;;2.10;;
9178;SDS011;4624;48.126;11.546;2022-11-27T08:18:35;2.80;;;2.23;;
9178;SDS011;4624;48.126;11.546;2022-11-27T08:21:04;3.23;;;2.23;;
9178;SDS011;4624;48.126;11.546;2022-11-27T08:23:31;2.03;;;1.93;;
9178;SDS011;4624;48.126;11.546;2022-11-27T08:25:57;2.10;;;1.90;;
9178;SDS011;4624;48.126;11.546;2022-11-27T08:28:24;3.23;;;2.20;;
9178;SDS011;4624;48.126;11.546;2022-11-27T08:30:54;2.60;;;1.97;;
9178;SDS011;4624;48.126;11.546;2022-11-27T08:33:22;2.73;;;2.00;;
9178;SDS011;4624;48.126;11.546;2022-11-27T08:35:49;2.30;;;2.10;;
9178;SDS011;4624;48.126;11.546;2022-11-27T08:38:17;2.30;;;2.10;;
9178;SDS011;4624;48.126;11.546;2022-11-27T08:40:44;2.03;;;1.93;;
9178;SDS011;4624;48.126;11.546;2022-11-27T08:43:18;2.27;;;2.03;;
9178;SDS011;4624;48.126;11.546;2022-11-27T08:45:44;1.87;;;1.73;;
9178;SDS011;4624;48.126;11.546;2022-11-27T08:48:11;2.00;;;1.80;;
9178;SDS011;4624;48.126;11.546;2022-11-27T08:50:38;3.10;;;2.30;;
9178;SDS011;4624;48.126;11.546;2022-11-27T08:53:05;1.97;;;1.83;;
9178;SDS011;4624;48.126;11.546;2022-11-27T08:55:33;2.33;;;2.17;;
9178;SDS011;4624;48.126;11.546;2022-11-27T08:58:00;2.37;;;2.17;;
9178;SDS011;4624;48.126;11.546;2022-11-27T09:00:27;2.37;;;1.93;;
9178;SDS011;4624;48.126;11.546;2022-11-27T09:02:54;2.17;;;2.07;;
9178;SDS011;4624;48.126;11.546;2022-11-27T09:05:21;2.23;;;2.03;;
9178;SDS011;4624;48.126;11.546;2022-11-27T09:07:48;2.03;;;1.60;;
9178;SDS011;4624;48.126;11.546;2022-11-27T09:10:15;2.50;;;1.93;;
9178;SDS011;4624;48.126;11.546;2022-11-27T09:12:44;2.30;;;2.10;;
9178;SDS011;4624;48.126;11.546;2022-11-27T09:15:11;2.00;;;1.90;;
9178;SDS011;4624;48.126;11.546;2022-11-27T09:17:38;2.00;;;1.90;;
9178;SDS011;4624;48.126;11.546;2022-11-27T09:20:06;2.40;;;1.83;;
9178;SDS011;4624;48.126;11.546;2022-11-27T09:22:33;2.40;;;1.83;;
9178;SDS011;4624;48.126;11.546;2022-11-27T09:25:00;2.40;;;2.20;;
9178;SDS011;4624;48.126;11.546;2022-11-27T09:27:27;2.87;;;2.47;;
9178;SDS011;4624;48.126;11.546;2022-11-27T09:29:55;2.83;;;2.20;;
9178;SDS011;4624;48.126;11.546;2022-11-27T09:32:22;1.97;;;1.80;;
9178;SDS011;4624;48.126;11.546;2022-11-27T09:34:50;1.80;;;1.70;;
9178;SDS011;4624;48.126;11.546;2022-11-27T09:37:16;2.10;;;2.00;;
9178;SDS011;4624;48.126;11.546;2022-11-27T09:39:43;2.07;;;1.77;;
9178;SDS011;4624;48.126;11.546;2022-11-27T09:42:11;2.30;;;1.90;;
9178;SDS011;4624;48.126;11.546;2022-11-27T09:44:46;2.40;;;2.03;;
9178;SDS011;4624;48.126;11.546;2022-11-27T09:47:24;2.37;;;2.17;;
9178;SDS011;4624;48.126;11.546;2022-11-27T09:49:58;1.90;;;1.80;;
9178;SDS011;4624;48.126;11.546;2022-11-27T09:52:28;1.97;;;1.87;;
9178;SDS011;4624;48.126;11.546;2022-11-27T09:55:00;2.70;;;2.03;;
9178;SDS011;4624;48.126;11.546;2022-11-27T09:57:30;2.23;;;2.07;;
9178;SDS011;4624;48.126;11.546;2022-11-27T10:00:00;2.27;;;2.07;;
9178;SDS011;4624;48.126;11.546;2022-11-27T10:02:32;2.57;;;2.37;;
9178;SDS011;4624;48.126;11.546;2022-11-27T10:05:02;2.80;;;2.37;;
9178;SDS011;4624;48.126;11.546;2022-11-27T10:07:35;2.20;;;2.00;;
9178;SDS011;4624;48.126;11.546;2022-11-27T10:10:18;2.47;;;2.27;;
9178;SDS011;4624;48.126;11.546;2022-11-27T10:12:55;2.37;;;2.17;;
9178;SDS011;4624;48.126;11.546;2022-11-27T10:15:32;2.73;;;2.27;;
9178;SDS011;4624;48.126;11.546;2022-11-27T10:18:10;3.67;;;2.80;;
9178;SDS011;4624;48.126;11.546;2022-11-27T10:20:43;2.60;;;2.40;;
9178;SDS011;4624;48.126;11.546;2022-11-27T10:23:15;2.47;;;2.20;;
9178;SDS011;4624;48.126;11.546;2022-11-27T10:25:49;2.87;;;2.67;;
9178;SDS011;4624;48.126;11.546;2022-11-27T10:28:22;2.27;;;2.17;;
9178;SDS011;4624;48.126;11.546;2022-11-27T10:30:57;2.83;;;2.57;;
9178;SDS011;4624;48.126;11.546;2022-11-27T10:33:33;2.57;;;2.37;;
9178;SDS011;4624;48.126;11.546;2022-11-27T10:36:03;2.37;;;2.17;;
9178;SDS011;4624;48.126;11.546;2022-11-27T10:38:35;2.53;;;2.33;;
9178;SDS011;4624;48.126;11.546;2022-11-27T10:41:06;2.60;;;2.40;;
9178;SDS011;4624;48.126;11.546;2022-11-27T10:43:37;2.53;;;2.13;;
9178;SDS011;4624;48.126;11.546;2022-11-27T10:46:07;2.60;;;2.40;;
9178;SDS011;4624;48.126;11.546;2022-11-27T10:48:40;2.60;;;2.40;;
9178;SDS011;4624;48.126;11.546;2022-11-27T10:51:11;2.30;;;2.00;;
9178;SDS011;4624;48.126;11.546;2022-11-27T10:53:41;2.50;;;2.30;;
9178;SDS011;4624;48.126;11.546;2022-11-27T10:56:17;2.40;;;2.20;;
9178;SDS011;4624;48.126;11.546;2022-11-27T10:58:54;3.73;;;2.00;;
9178;SDS011;4624;48.126;11.546;2022-11-27T11:01:24;2.43;;;2.23;;
9178;SDS011;4624;48.126;11.546;2022-11-27T11:04:04;2.77;;;1.90;;
9178;SDS011;4624;48.126;11.546;2022-11-27T11:06:32;2.30;;;1.73;;
9178;SDS011;4624;48.126;11.546;2022-11-27T11:09:05;2.97;;;2.23;;
9178;SDS011;4624;48.126;11.546;2022-11-27T11:11:38;2.07;;;1.90;;
9178;SDS011;4624;48.126;11.546;2022-11-27T11:14:12;2.10;;;1.90;;
9178;SDS011;4624;48.126;11.546;2022-11-27T11:16:42;2.13;;;2.00;;
9178;SDS011;4624;48.126;11.546;2022-11-27T11:19:19;3.20;;;2.23;;
9178;SDS011;4624;48.126;11.546;2022-11-27T11:21:47;1.93;;;1.60;;
9178;SDS011;4624;48.126;11.546;2022-11-27T11:24:16;3.03;;;1.90;;
9178;SDS011;4624;48.126;11.546;2022-11-27T11:26:49;2.40;;;2.10;;
9178;SDS011;4624;48.126;11.546;2022-11-27T11:29:23;2.63;;;2.23;;
9178;SDS011;4624;48.126;11.546;2022-11-27T11:31:55;2.07;;;1.87;;
9178;SDS011;4624;48.126;11.546;2022-11-27T11:34:27;1.97;;;1.67;;
9178;SDS011;4624;48.126;11.546;2022-11-27T11:36:55;2.63;;;2.20;;
9178;SDS011;4624;48.126;11.546;2022-11-27T11:39:24;3.40;;;2.40;;
9178;SDS011;4624;48.126;11.546;2022-11-27T11:41:53;2.23;;;1.93;;
9178;SDS011;4624;48.126;11.546;2022-11-27T11:44:21;2.13;;;1.93;;
9178;SDS011;4624;48.126;11.546;2022-11-27T11:46:51;2.90;;;1.70;;
9178;SDS011;4624;48.126;11.546;2022-11-27T11:49:21;2.47;;;2.27;;
9178;SDS011;4624;48.126;11.546;2022-11-27T11:51:57;2.33;;;1.70;;
9178;SDS011;4624;48.126;11.546;2022-11-27T11:54:37;2.17;;;1.97;;
9178;SDS011;4624;48.126;11.546;2022-11-27T11:57:18;2.57;;;2.37;;
9178;SDS011;4624;48.126;11.546;2022-11-27T11:59:57;5.00;;;2.20;;
9178;SDS011;4624;48.126;11.546;2022-11-27T12:02:42;2.20;;;2.10;;
9178;SDS011;4624;48.126;11.546;2022-11-27T12:05:23;3.17;;;2.87;;
9178;SDS011;4624;48.126;11.546;2022-11-27T12:08:01;2.60;;;2.40;;
9178;SDS011;4624;48.126;11.546;2022-11-27T12:10:53;2.47;;;2.27;;
9178;SDS011;4624;48.126;11.546;2022-11-27T12:13:29;2.70;;;2.50;;
9178;SDS011;4624;48.126;11.546;2022-11-27T12:16:08;3.97;;;2.20;;
9178;SDS011;4624;48.126;11.546;2022-11-27T12:18:44;2.33;;;2.23;;
9178;SDS011;4624;48.126;11.546;2022-11-27T12:21:22;2.30;;;2.10;;
9178;SDS011;4624;48.126;11.546;2022-11-27T12:24:04;3.00;;;2.80;;
9178;SDS011;4624;48.126;11.546;2022-11-27T12:26:47;2.80;;;2.60;;
9178;SDS011;4624;48.126;11.546;2022-11-27T12:32:17;2.93;;;2.50;;
9178;SDS011;4624;48.126;11.546;2022-11-27T12:34:55;2.80;;;2.60;;
9178;SDS011;4624;48.126;11.546;2022-11-27T12:37:36;2.80;;;2.60;;
9178;SDS011;4624;48.126;11.546;2022-11-27T12:40:23;3.03;;;2.77;;
9178;SDS011;4624;48.126;11.546;2022-11-27T12:43:00;3.20;;;3.00;;
9178;SDS011;4624;48.126;11.546;2022-11-27T12:45:37;133.37;;;47.47;;
9178;SDS011;4624;48.126;11.546;2022-11-27T12:48:11;103.03;;;38.70;;
9178;SDS011;4624;48.126;11.546;2022-11-27T12:50:43;49.43;;;21.67;;
9178;SDS011;4624;48.126;11.546;2022-11-27T12:53:17;4.97;;;3.97;;
9178;SDS011;4624;48.126;11.546;2022-11-27T12:55:51;3.20;;;2.90;;
9178;SDS011;4624;48.126;11.546;2022-11-27T12:58:27;3.10;;;2.90;;
9178;SDS011;4624;48.126;11.546;2022-11-27T13:01:00;3.20;;;2.90;;
9178;SDS011;4624;48.126;11.546;2022-11-27T13:03:33;3.40;;;3.10;;
9178;SDS011;4624;48.126;11.546;2022-11-27T13:06:04;3.20;;;3.00;;
9178;SDS011;4624;48.126;11.546;2022-11-27T13:08:38;3.20;;;2.90;;
9178;SDS011;4624;48.126;11.546;2022-11-27T13:11:12;3.67;;;3.33;;
9178;SDS011;4624;48.126;11.546;2022-11-27T13:13:41;3.67;;;3.37;;
9178;SDS011;4624;48.126;11.546;2022-11-27T13:16:12;3.77;;;3.47;;
9178;SDS011;4624;48.126;11.546;2022-11-27T13:18:44;3.17;;;2.97;;
9178;SDS011;4624;48.126;11.546;2022-11-27T13:21:16;3.70;;;3.33;;
9178;SDS011;4624;48.126;11.546;2022-11-27T13:23:47;6.90;;;4.87;;
9178;SDS011;4624;48.126;11.546;2022-11-27T13:26:17;4.90;;;3.73;;
9178;SDS011;4624;48.126;11.546;2022-11-27T13:28:48;3.83;;;3.53;;
9178;SDS011;4624;48.126;11.546;2022-11-27T13:31:18;4.10;;;3.70;;
9178;SDS011;4624;48.126;11.546;2022-11-27T13:33:48;4.47;;;3.77;;
9178;SDS011;4624;48.126;11.546;2022-11-27T13:36:18;4.67;;;4.20;;
9178;SDS011;4624;48.126;11.546;2022-11-27T13:38:51;4.43;;;4.03;;
9178;SDS011;4624;48.126;11.546;2022-11-27T13:41:21;4.73;;;4.33;;
9178;SDS011;4624;48.126;11.546;2022-11-27T13:43:54;5.40;;;4.90;;
9178;SDS011;4624;48.126;11.546;2022-11-27T13:46:21;5.80;;;4.60;;
9178;SDS011;4624;48.126;11.546;2022-11-27T13:48:51;5.57;;;5.07;;
9178;SDS011;4624;48.126;11.546;2022-11-27T13:51:24;5.03;;;4.53;;
9178;SDS011;4624;48.126;11.546;2022-11-27T13:53:52;5.13;;;4.63;;
9178;SDS011;4624;48.126;11.546;2022-11-27T13:56:32;7.93;;;4.87;;
9178;SDS011;4624;48.126;11.546;2022-11-27T13:58:59;5.27;;;4.83;;
9178;SDS011;4624;48.126;11.546;2022-11-27T14:01:37;4.97;;;4.47;;
9178;SDS011;4624;48.126;11.546;2022-11-27T14:04:05;5.10;;;4.70;;
9178;SDS011;4624;48.126;11.546;2022-11-27T14:06:33;5.20;;;4.70;;
9178;SDS011;4624;48.126;11.546;2022-11-27T14:09:00;5.10;;;4.20;;
9178;SDS011;4624;48.126;11.546;2022-11-27T14:11:37;5.40;;;4.90;;
9178;SDS011;4624;48.126;11.546;2022-11-27T14:14:11;6.10;;;5.47;;
9178;SDS011;4624;48.126;11.546;2022-11-27T14:16:49;5.83;;;5.33;;
9178;SDS011;4624;48.126;11.546;2022-11-27T14:19:25;6.10;;;5.50;;
9178;SDS011;4624;48.126;11.546;2022-11-27T14:21:54;7.93;;;5.57;;
9178;SDS011;4624;48.126;11.546;2022-11-27T14:24:25;6.17;;;5.57;;
9178;SDS011;4624;48.126;11.546;2022-11-27T14:27:04;5.97;;;5.40;;
9178;SDS011;4624;48.126;11.546;2022-11-27T14:29:39;5.57;;;5.07;;
9178;SDS011;4624;48.126;11.546;2022-11-27T14:32:07;6.10;;;5.50;;
9178;SDS011;4624;48.126;11.546;2022-11-27T14:34:37;5.27;;;4.77;;
9178;SDS011;4624;48.126;11.546;2022-11-27T14:37:04;5.27;;;4.77;;
9178;SDS011;4624;48.126;11.546;2022-11-27T14:39:31;8.20;;;6.37;;
9178;SDS011;4624;48.126;11.546;2022-11-27T14:42:01;7.33;;;5.73;;
9178;SDS011;4624;48.126;11.546;2022-11-27T14:44:30;7.03;;;5.63;;
9178;SDS011;4624;48.126;11.546;2022-11-27T14:46:58;6.63;;;5.90;;
9178;SDS011;4624;48.126;11.546;2022-11-27T14:49:27;6.40;;;5.80;;
9178;SDS011;4624;48.126;11.546;2022-11-27T14:51:55;7.70;;;5.53;;
9178;SDS011;4624;48.126;11.546;2022-11-27T14:54:26;6.20;;;5.33;;
9178;SDS011;4624;48.126;11.546;2022-11-27T14:56:55;5.57;;;4.97;;
9178;SDS011;4624;48.126;11.546;2022-11-27T14:59:24;5.60;;;5.10;;
9178;SDS011;4624;48.126;11.546;2022-11-27T15:01:58;9.13;;;5.70;;
9178;SDS011;4624;48.126;11.546;2022-11-27T15:04:27;6.97;;;6.13;;
9178;SDS011;4624;48.126;11.546;2022-11-27T15:06:58;6.43;;;5.47;;
9178;SDS011;4624;48.126;11.546;2022-11-27T15:09:26;6.23;;;5.63;;
9178;SDS011;4624;48.126;11.546;2022-11-27T15:11:55;6.40;;;5.80;;
9178;SDS011;4624;48.126;11.546;2022-11-27T15:14:25;7.80;;;5.63;;
9178;SDS011;4624;48.126;11.546;2022-11-27T15:16:53;8.23;;;6.47;;
9178;SDS011;4624;48.126;11.546;2022-11-27T15:19:23;8.90;;;6.93;;
9178;SDS011;4624;48.126;11.546;2022-11-27T15:21:55;7.37;;;6.53;;
9178;SDS011;4624;48.126;11.546;2022-11-27T15:24:27;8.80;;;6.60;;
9178;SDS011;4624;48.126;11.546;2022-11-27T15:27:05;6.77;;;6.07;;
9178;SDS011;4624;48.126;11.546;2022-11-27T15:29:35;8.93;;;5.80;;